Weather

The location could not be found.

 

 

For a detailed forecast click the banner below.

ballooncastlogo

 

 

Available data for KABQ from the past 2 hours
ALBUQUERQUE, NM
Metar
KABQ 190952Z 16007KT 10SM FEW065 SCT080 SCT130 07/M03 A3013 RMK AO2 RAB05E16 SLP164 P0000 T00721028

09:52 UTC

Wind: 160° 7kt

Visibility: 10 SM

Sky: FEW 6500 ft

Temp: 7 deg C / 44.6 deg F

Dewpoint: -3 deg C / 26.6 deg F

Pressure: 30.13 inHg

TAF
KABQ 190530Z 1906/2006 14006KT P6SM SCT080 SCT110 FM191100 VRB04KT P6SM BKN080 FM191800 VRB04KT P6SM SCT060 SCT090 FM192100 26006KT P6SM SCT120 FM200100 08015G25KT P6SM VCSH BKN080